الصفحة الرئيسية
METAR-TAF:

METAR-TAF

مطار :

مطار دون موينغ

بانكوك, تايلاند

دائرة عرض: 13-54-45N, خط طول: 100-36-24E, ارتفاع: 4 متر

مراقبة الطقس الحالي

تاريخ ووقت الإصدار 27 دقيقة قبل الساعة 07:30UTC
ريح 8 عقدة من الجنوب, الاتجاه يتراوح بين الجنوب الشرقي و الجنوب الغربي
درجة الحرارة 37°درجة مئوية
الرطوبة 45%
ضغط 1007 hPa
الرؤية 10 كم أو أكثر
غيوم قليلة على ارتفاع 4000 قدم

METAR: VTBD 310730Z 18008KT 130V220 9999 FEW040 37/23 Q1007 NOSIG

زمن: 14:57 (07:57 UTC)

توقعات

تاريخ ووقت الإصدار 2ساعات و 57 دقيقة قبل الساعة 05:00UTC
التوقعات صالحة من31 الساعة 06 UTC إلى 01 الساعة 12 UTC
ريح 8 عقدة من الجنوب
الرؤية: 9000 متر
غيوم قليلة على ارتفاع 2000 قدم
أصبح
من 31 الساعة 22 UTC إلى 31 الساعة 24 UTC
ريح 5 عقدة من الجنوب الشرقي
أصبح
من 01 الساعة 01 UTC إلى 01 الساعة 03 UTC
ريح 8 عقدة من الجنوب

TAF: VTBD 310500Z 3106/0112 19008KT 9000 FEW020 BECMG 3122/3124 13005KT BECMG 0101/0103 19008KT

أرصاد الطقس والتوقعات من أكثر من 4000 مطار (تقارير الطقس للمطار METAR والتنبؤ بالطقس بالمطارTAF).

المحطات المتاحة هي النقط الصفراء والحمراء على الخريطة.

حرك المؤشر فوق النقطة لمعرفة اسم المحطة.

ثم انقر لمعرفة أرصاد وتوقعات الطقس.

لتغيير الخارطة: اضغط على الأزرار الخضراء مع رمز الصليب الأسود للتكبير. على الزر الأخضر مع شرطة للتصغير، أو على الأسهم الخضراء للخرائط المجاورة.


METAR-TAF: